x

Central Aleutians 230nm Sw Dutch Harbor (46072) Wave Buoy

6:50am - Sun 11th Dec 2016 All times are UTC.

  • Sig Wave height 12.5ft
  • Swell Direction
  • Peak Period 9s
  • Average Period 8s
  • Wind
    22mph, 27mph gusts
  • Sea Temp 44°f
  • 空気 Temp 41°f
  • Sea Pressure 1010.9mb

More Historic Weather Station data

Upgrade to MSW Pro to gain access to the past 30 days of data for over 8000 Wavebouys and Weather Stations around the globe.

Join Pro

Comparision Forecast

View Surf forecast
   
Sun 12/11 6:50am 12.5ft 9s 8s 22 27 mph 1010.9mb 44f 41f
5:50am 13.5ft 15s 7s 27 34 mph 1010.6mb 43f 41f
4:50am 13ft 9s 7s 29 36 mph 1010.4mb 44f 40f
3:50am 13ft 15s 7s 29 38 mph 1010.6mb 44f 40f
2:50am 12ft 8s 7s 31 38 mph 1010.7mb 43f 40f
1:50am 12ft 8s 7s 29 36 mph 1011.2mb 44f 39f
12:50am 11ft 16s 7s 27 34 mph 1011.7mb 44f 40f
Sat 12/10 11:50pm 10ft 8s 7s 27 34 mph 1012.3mb 44f 40f
10:50pm 10.5ft 7s 6s 29 34 mph 1012.9mb 44f 40f
9:50pm 10.5ft 8s 6s 29 34 mph 1013.8mb 43f 40f
8:50pm 10ft 7s 6s 31 36 mph 1014.2mb 43f 40f
7:50pm 9ft 7s 6s 31 38 mph 1014.4mb 44f 40f
6:50pm 8.5ft 6s 6s 29 34 mph 1014.9mb 44f 40f
5:50pm 7.5ft 7s 5s 29 38 mph 1015.4mb 44f 39f
4:50pm 7ft 6s 5s 29 36 mph 1016mb 44f 39f
3:50pm 7ft 6s 5s 29 34 mph 1016.6mb 44f 39f
2:50pm 7ft 5s 5s 29 36 mph 1017.4mb 44f 38f
1:50pm 6ft 5s 5s 27 31 mph 1018.4mb 44f 38f
12:50pm 6ft 12s 5s 25 31 mph 1019.2mb 44f 38f
11:50am 6.5ft 12s 5s 25 29 mph 1019.9mb 44f 38f
10:50am 6ft 12s 5s 27 31 mph 1020.4mb 44f 38f
9:50am 6ft 13s 6s 22 29 mph 1021.1mb 44f 38f
8:50am 6.5ft 12s 6s 25 29 mph 1021mb 44f 38f
7:50am 6ft 12s 6s 22 27 mph 1021.3mb 44f 38f
6:50am 7ft 13s 7s 20 27 mph 1021.9mb 44f 38f
5:50am 7.5ft 13s 7s 20 22 mph 1022.3mb 44f 38f
4:50am 8ft 13s 8s 16 20 mph 1022.8mb 44f 38f
3:50am 8ft 13s 9s 13 20 mph 1023mb 44f 37f
2:50am 8ft 13s 9s 13 18 mph 1023.1mb 44f 37f
1:50am 8ft 13s 9s 13 18 mph 1023.4mb 44f 37f
12:50am 8ft 13s 9s 13 18 mph 1023.6mb 44f 38f
Fri 12/09 11:50pm 10ft 14s 10s 13 18 mph 1023.6mb 44f 38f
10:50pm 9ft 14s 9s 13 18 mph 1023.7mb 44f 37f
9:50pm 8ft 14s 8s 16 22 mph 1023.6mb 44f 38f
8:50pm 9ft 14s 9s 16 22 mph 1023.6mb 44f 37f
7:50pm 9ft 15s 9s 13 18 mph 1023.6mb 44f 38f
6:50pm 10ft 15s 10s 13 18 mph 1023.3mb 44f 39f
5:50pm 9.5ft 14s 9s 11 13 mph 1023.3mb 44f 39f
4:50pm 11ft 15s 10s 11 16 mph 1023.1mb 44f 40f
3:50pm 10.5ft 15s 10s 9 11 mph 1022.8mb 44f 40f
2:50pm 11.5ft 15s 10s 9 13 mph 1022.6mb 44f 40f
1:50pm 10.5ft 16s 10s 11 16 mph 1023mb 44f 40f
12:50pm 11.5ft 15s 11s 9 13 mph 1022.9mb 44f 40f
11:50am 10.5ft 16s 11s 11 16 mph 1022.7mb 44f 40f
10:50am 11ft 16s 11s 7 9 mph 1022.7mb 44f 40f
9:50am 9.5ft 16s 9s  -  4 mph 1022.6mb 44f 40f
8:50am 8.5ft 16s 9s 2 4 mph 1022.2mb 44f 40f
7:50am 8ft 16s 8s  -  2 mph 1022mb 44f 40f
6:50am 8ft 11s 8s 7 9 mph 1021.5mb 44f 40f
5:50am 8ft 8s 8s 4 7 mph 1021.4mb 44f 40f
4:50am 8ft 11s 7s 2 7 mph 1021.5mb 44f 40f
3:50am 8ft 11s 8s 4 7 mph 1021.8mb 44f 40f
2:50am 8.5ft 11s 8s 4 9 mph 1022mb 44f 40f
12:50am 7ft 12s 8s 11 16 mph 1022.8mb 44f 41f
Thu 12/08 11:50pm 7ft 11s 8s 13 18 mph 1023.2mb 44f 41f
10:50pm 6ft 11s 8s 11 16 mph 1023.8mb 44f 41f
9:50pm 6ft 11s 8s 9 13 mph 1024.5mb 44f 41f
8:50pm 6.5ft 12s 8s 7 11 mph 1025mb 44f 40f
7:50pm 6.5ft 12s 8s 4 9 mph 1025.9mb 44f 40f
6:50pm 6.5ft 13s 8s 2 4 mph 1025.4mb 44f 40f
5:50pm 6.5ft 11s 8s 2 7 mph 1026.5mb 44f 40f
4:50pm 7ft 8s 8s 4 9 mph 1027.1mb 44f 39f
3:50pm 7ft 9s 8s 4 7 mph 1027.2mb 44f 39f
2:50pm 7ft 9s 8s 2 4 mph 1027.9mb 44f 39f
1:50pm 7ft 10s 8s  -  2 mph 1028.5mb 44f 39f
12:50pm 6ft 10s 8s  -  2 mph 1028.8mb 44f 39f
11:50am 6ft 8s 8s 2 7 mph 1028.9mb 44f 39f
10:50am 6ft 10s 9s  -  2 mph 1029.8mb 44f 39f
9:50am 5.5ft 11s 9s 4 7 mph 1029.9mb 44f 39f
8:50am 6ft 11s 9s 2 4 mph 1030.3mb 44f 39f
7:50am 5.5ft 10s 9s 2 4 mph 1030.4mb 44f 39f
5:50am 4.5ft 10s 7s 9 11 mph 1030.9mb 44f 38f
4:50am 5ft 9s 7s 9 13 mph 1031mb 44f 39f
3:50am 5ft 9s 7s 11
mph
1031.4mb 44f 39f
2:50am 5ft 10s 7s 9 11 mph 1031.7mb 44f 39f
1:50am 4.5ft 10s 8s 7 9 mph 1031.6mb 44f 40f
12:50am 5ft 10s 8s 7 9 mph 1031.7mb 44f 40f
Wed 12/07 11:50pm 4.5ft 11s 8s 7 9 mph 1032.3mb 44f 40f
10:50pm 5ft 10s 8s 4 7 mph 1032.5mb 44f 40f
9:50pm 4.5ft 10s 8s 7 11 mph 1033mb 44f 40f
8:50pm 4.5ft 10s 8s 9 11 mph 1033mb 44f 40f
7:50pm 4.5ft 9s 8s 4 7 mph 1033.5mb 44f 40f
6:50pm 5ft 10s 8s 4 7 mph 1033.5mb 44f 41f
4:50pm 6ft 9s 8s 2 4 mph 1033.4mb 44f 41f
3:50pm 5.5ft 10s 8s 7 9 mph 1033.8mb 44f 41f
2:50pm 6ft 11s 8s 4 7 mph 1033.8mb 44f 41f
1:50pm 5.5ft 11s 8s 4 7 mph 1034.5mb 44f 41f
12:50pm 5.5ft 10s 7s 9 11 mph 1034.9mb 44f 42f
11:50am 6ft 10s 8s 9 11 mph 1035.2mb 44f 42f
10:50am 6.5ft 10s 8s 7 9 mph 1035.3mb 44f 42f
9:50am 6ft 11s 8s 9 11 mph 1035.1mb 45f 42f
8:50am 5.5ft 11s 8s 9 11 mph 1035.2mb 45f 42f